sensor_id;sensor_type;location;lat;lon;timestamp;pressure;altitude;pressure_sealevel;temperature;humidity
40171;BME280;37650;52.790;18.268;2023-03-23T00:03:40;99753.25;;;9.84;100.00
40171;BME280;37650;52.790;18.268;2023-03-23T00:07:02;99752.23;;;9.84;100.00
40171;BME280;37650;52.790;18.268;2023-03-23T00:10:24;99750.54;;;9.86;100.00
40171;BME280;37650;52.790;18.268;2023-03-23T00:13:48;99747.38;;;9.87;100.00
40171;BME280;37650;52.790;18.268;2023-03-23T00:17:14;99746.23;;;9.85;100.00
40171;BME280;37650;52.790;18.268;2023-03-23T00:20:35;99743.12;;;9.84;100.00
40171;BME280;37650;52.790;18.268;2023-03-23T00:24:06;99739.55;;;9.81;100.00
40171;BME280;37650;52.790;18.268;2023-03-23T00:27:29;99737.69;;;9.80;100.00
40171;BME280;37650;52.790;18.268;2023-03-23T00:31:02;99732.24;;;9.80;100.00
40171;BME280;37650;52.790;18.268;2023-03-23T00:34:25;99726.31;;;9.80;100.00
40171;BME280;37650;52.790;18.268;2023-03-23T00:37:46;99717.89;;;9.80;100.00
40171;BME280;37650;52.790;18.268;2023-03-23T00:41:08;99726.06;;;9.81;100.00
40171;BME280;37650;52.790;18.268;2023-03-23T00:44:33;99733.27;;;9.81;100.00
40171;BME280;37650;52.790;18.268;2023-03-23T00:47:57;99734.48;;;9.81;100.00
40171;BME280;37650;52.790;18.268;2023-03-23T00:51:25;99737.95;;;9.86;100.00
40171;BME280;37650;52.790;18.268;2023-03-23T00:54:47;99735.44;;;9.87;100.00
40171;BME280;37650;52.790;18.268;2023-03-23T00:58:11;99729.42;;;9.88;100.00
40171;BME280;37650;52.790;18.268;2023-03-23T01:01:34;99722.08;;;9.84;100.00
40171;BME280;37650;52.790;18.268;2023-03-23T01:04:57;99710.99;;;9.81;100.00
40171;BME280;37650;52.790;18.268;2023-03-23T01:08:19;99719.63;;;9.80;100.00
40171;BME280;37650;52.790;18.268;2023-03-23T01:11:43;99714.41;;;9.80;100.00
40171;BME280;37650;52.790;18.268;2023-03-23T01:15:06;99720.02;;;9.79;100.00
40171;BME280;37650;52.790;18.268;2023-03-23T01:18:27;99718.27;;;9.79;100.00
40171;BME280;37650;52.790;18.268;2023-03-23T01:21:48;99719.42;;;9.77;100.00
40171;BME280;37650;52.790;18.268;2023-03-23T01:25:12;99713.36;;;9.76;100.00
40171;BME280;37650;52.790;18.268;2023-03-23T01:28:34;99716.33;;;9.76;100.00
40171;BME280;37650;52.790;18.268;2023-03-23T01:31:56;99711.55;;;9.77;100.00
40171;BME280;37650;52.790;18.268;2023-03-23T01:35:18;99711.48;;;9.74;100.00
40171;BME280;37650;52.790;18.268;2023-03-23T01:38:41;99707.85;;;9.69;100.00
40171;BME280;37650;52.790;18.268;2023-03-23T01:42:04;99703.20;;;9.63;100.00
40171;BME280;37650;52.790;18.268;2023-03-23T01:45:30;99694.79;;;9.63;100.00
40171;BME280;37650;52.790;18.268;2023-03-23T01:48:52;99678.98;;;9.64;100.00
40171;BME280;37650;52.790;18.268;2023-03-23T01:52:26;99685.34;;;9.67;100.00
40171;BME280;37650;52.790;18.268;2023-03-23T01:55:57;99687.55;;;9.68;100.00
40171;BME280;37650;52.790;18.268;2023-03-23T01:59:20;99685.06;;;9.66;100.00
40171;BME280;37650;52.790;18.268;2023-03-23T02:02:49;99681.70;;;9.62;100.00
40171;BME280;37650;52.790;18.268;2023-03-23T02:06:12;99679.12;;;9.58;100.00
40171;BME280;37650;52.790;18.268;2023-03-23T02:09:50;99677.02;;;9.53;100.00
40171;BME280;37650;52.790;18.268;2023-03-23T02:13:13;99681.55;;;9.50;100.00
40171;BME280;37650;52.790;18.268;2023-03-23T02:17:00;99675.63;;;9.49;100.00
40171;BME280;37650;52.790;18.268;2023-03-23T02:20:38;99674.58;;;9.46;100.00
40171;BME280;37650;52.790;18.268;2023-03-23T02:35:54;99667.56;;;9.38;100.00
40171;BME280;37650;52.790;18.268;2023-03-23T02:39:30;99666.04;;;9.36;100.00
40171;BME280;37650;52.790;18.268;2023-03-23T02:42:56;99667.66;;;9.36;100.00
40171;BME280;37650;52.790;18.268;2023-03-23T02:46:20;99659.66;;;9.31;100.00
40171;BME280;37650;52.790;18.268;2023-03-23T02:49:46;99655.73;;;9.28;100.00
40171;BME280;37650;52.790;18.268;2023-03-23T02:53:13;99647.26;;;9.26;100.00
40171;BME280;37650;52.790;18.268;2023-03-23T02:56:38;99649.91;;;9.21;100.00
40171;BME280;37650;52.790;18.268;2023-03-23T03:00:08;99642.42;;;9.16;100.00
40171;BME280;37650;52.790;18.268;2023-03-23T03:03:32;99632.91;;;9.14;100.00
40171;BME280;37650;52.790;18.268;2023-03-23T03:10:26;99614.13;;;9.11;100.00
40171;BME280;37650;52.790;18.268;2023-03-23T03:13:58;99622.15;;;9.07;100.00
40171;BME280;37650;52.790;18.268;2023-03-23T03:17:26;99629.27;;;9.05;100.00
40171;BME280;37650;52.790;18.268;2023-03-23T03:20:54;99624.81;;;9.03;100.00
40171;BME280;37650;52.790;18.268;2023-03-23T03:24:21;99628.70;;;9.02;100.00
40171;BME280;37650;52.790;18.268;2023-03-23T03:27:47;99623.20;;;8.99;100.00
40171;BME280;37650;52.790;18.268;2023-03-23T03:31:28;99624.96;;;8.99;100.00
40171;BME280;37650;52.790;18.268;2023-03-23T03:34:50;99623.46;;;9.02;100.00
40171;BME280;37650;52.790;18.268;2023-03-23T03:38:14;99620.34;;;9.05;100.00
40171;BME280;37650;52.790;18.268;2023-03-23T03:41:37;99621.13;;;9.08;100.00
40171;BME280;37650;52.790;18.268;2023-03-23T03:45:00;99627.73;;;9.08;100.00
40171;BME280;37650;52.790;18.268;2023-03-23T03:48:23;99627.67;;;9.05;100.00
40171;BME280;37650;52.790;18.268;2023-03-23T03:51:45;99625.48;;;9.03;100.00
40171;BME280;37650;52.790;18.268;2023-03-23T03:55:12;99622.48;;;9.04;100.00
40171;BME280;37650;52.790;18.268;2023-03-23T03:58:35;99618.35;;;9.03;100.00
40171;BME280;37650;52.790;18.268;2023-03-23T04:02:07;99612.38;;;9.03;100.00
40171;BME280;37650;52.790;18.268;2023-03-23T04:05:29;99606.56;;;9.04;100.00
40171;BME280;37650;52.790;18.268;2023-03-23T04:08:51;99602.72;;;9.04;100.00
40171;BME280;37650;52.790;18.268;2023-03-23T04:12:14;99602.99;;;9.02;100.00
40171;BME280;37650;52.790;18.268;2023-03-23T04:15:56;99602.73;;;8.99;100.00
40171;BME280;37650;52.790;18.268;2023-03-23T04:19:18;99604.08;;;8.97;100.00
40171;BME280;37650;52.790;18.268;2023-03-23T04:22:40;99603.35;;;8.93;100.00
40171;BME280;37650;52.790;18.268;2023-03-23T04:26:05;99594.35;;;8.86;100.00
40171;BME280;37650;52.790;18.268;2023-03-23T04:29:31;99602.10;;;8.77;100.00
40171;BME280;37650;52.790;18.268;2023-03-23T04:33:14;99607.21;;;8.68;100.00
40171;BME280;37650;52.790;18.268;2023-03-23T04:36:39;99603.27;;;8.62;100.00
40171;BME280;37650;52.790;18.268;2023-03-23T04:40:09;99611.64;;;8.58;100.00
40171;BME280;37650;52.790;18.268;2023-03-23T04:43:34;99606.54;;;8.55;100.00
40171;BME280;37650;52.790;18.268;2023-03-23T04:47:18;99593.23;;;8.55;100.00
40171;BME280;37650;52.790;18.268;2023-03-23T04:50:46;99583.67;;;8.58;100.00
40171;BME280;37650;52.790;18.268;2023-03-23T04:54:16;99589.65;;;8.61;100.00
40171;BME280;37650;52.790;18.268;2023-03-23T04:57:42;99591.96;;;8.60;100.00
40171;BME280;37650;52.790;18.268;2023-03-23T05:01:23;99593.94;;;8.60;100.00
40171;BME280;37650;52.790;18.268;2023-03-23T05:04:59;99586.61;;;8.59;100.00
40171;BME280;37650;52.790;18.268;2023-03-23T05:08:24;99591.80;;;8.60;100.00
40171;BME280;37650;52.790;18.268;2023-03-23T05:11:46;99587.88;;;8.62;100.00
40171;BME280;37650;52.790;18.268;2023-03-23T05:15:10;99577.39;;;8.66;100.00
40171;BME280;37650;52.790;18.268;2023-03-23T05:18:32;99578.90;;;8.71;100.00
40171;BME280;37650;52.790;18.268;2023-03-23T05:21:58;99570.91;;;8.79;100.00
40171;BME280;37650;52.790;18.268;2023-03-23T05:25:27;99570.66;;;8.88;100.00
40171;BME280;37650;52.790;18.268;2023-03-23T05:28:55;99570.44;;;8.98;100.00
40171;BME280;37650;52.790;18.268;2023-03-23T05:32:20;99569.86;;;9.07;100.00
40171;BME280;37650;52.790;18.268;2023-03-23T05:36:06;99570.20;;;9.15;100.00
40171;BME280;37650;52.790;18.268;2023-03-23T05:40:10;99567.11;;;9.26;100.00
40171;BME280;37650;52.790;18.268;2023-03-23T05:43:40;99572.87;;;9.34;100.00
40171;BME280;37650;52.790;18.268;2023-03-23T05:47:13;99571.36;;;9.40;100.00
40171;BME280;37650;52.790;18.268;2023-03-23T05:50:40;99561.49;;;9.49;100.00
40171;BME280;37650;52.790;18.268;2023-03-23T05:54:03;99559.09;;;9.59;100.00
40171;BME280;37650;52.790;18.268;2023-03-23T05:57:26;99553.29;;;9.67;100.00
40171;BME280;37650;52.790;18.268;2023-03-23T06:01:09;99553.18;;;9.78;100.00
40171;BME280;37650;52.790;18.268;2023-03-23T06:04:31;99554.67;;;9.87;100.00
40171;BME280;37650;52.790;18.268;2023-03-23T06:08:05;99552.02;;;9.94;100.00
40171;BME280;37650;52.790;18.268;2023-03-23T06:11:28;99545.48;;;10.03;100.00
40171;BME280;37650;52.790;18.268;2023-03-23T06:15:11;99544.06;;;10.15;100.00
40171;BME280;37650;52.790;18.268;2023-03-23T06:19:11;99528.75;;;10.23;100.00
40171;BME280;37650;52.790;18.268;2023-03-23T06:22:44;99523.27;;;10.31;100.00
40171;BME280;37650;52.790;18.268;2023-03-23T06:26:25;99521.15;;;10.42;100.00
40171;BME280;37650;52.790;18.268;2023-03-23T06:29:51;99526.62;;;10.51;100.00
40171;BME280;37650;52.790;18.268;2023-03-23T06:33:12;99528.45;;;10.57;100.00
40171;BME280;37650;52.790;18.268;2023-03-23T06:37:06;99523.98;;;10.59;100.00
40171;BME280;37650;52.790;18.268;2023-03-23T06:40:38;99525.46;;;10.64;100.00
40171;BME280;37650;52.790;18.268;2023-03-23T06:44:19;99534.94;;;10.68;100.00
40171;BME280;37650;52.790;18.268;2023-03-23T06:47:40;99542.66;;;10.74;100.00
40171;BME280;37650;52.790;18.268;2023-03-23T06:51:02;99536.35;;;10.88;100.00
40171;BME280;37650;52.790;18.268;2023-03-23T06:54:24;99529.96;;;10.99;100.00
40171;BME280;37650;52.790;18.268;2023-03-23T06:57:47;99521.81;;;11.14;100.00
40171;BME280;37650;52.790;18.268;2023-03-23T07:01:09;99510.89;;;11.31;100.00
40171;BME280;37650;52.790;18.268;2023-03-23T07:04:35;99514.27;;;11.53;100.00
40171;BME280;37650;52.790;18.268;2023-03-23T07:08:03;99508.30;;;11.72;100.00
40171;BME280;37650;52.790;18.268;2023-03-23T07:11:45;99515.02;;;11.81;100.00
40171;BME280;37650;52.790;18.268;2023-03-23T07:15:18;99524.98;;;11.98;100.00
40171;BME280;37650;52.790;18.268;2023-03-23T07:18:42;99532.52;;;12.10;100.00
40171;BME280;37650;52.790;18.268;2023-03-23T07:22:06;99531.42;;;12.42;100.00
40171;BME280;37650;52.790;18.268;2023-03-23T07:25:28;99532.01;;;12.71;99.97
40171;BME280;37650;52.790;18.268;2023-03-23T07:28:51;99530.22;;;13.06;98.96
40171;BME280;37650;52.790;18.268;2023-03-23T07:32:21;99527.35;;;13.33;97.17
40171;BME280;37650;52.790;18.268;2023-03-23T07:35:42;99528.27;;;13.67;95.77
40171;BME280;37650;52.790;18.268;2023-03-23T07:39:08;99523.52;;;14.02;95.68
40171;BME280;37650;52.790;18.268;2023-03-23T07:42:30;99523.60;;;13.95;94.42
40171;BME280;37650;52.790;18.268;2023-03-23T07:45:53;99517.95;;;13.65;92.53
40171;BME280;37650;52.790;18.268;2023-03-23T07:49:17;99512.73;;;14.02;93.13
40171;BME280;37650;52.790;18.268;2023-03-23T07:52:46;99497.02;;;15.17;91.12
40171;BME280;37650;52.790;18.268;2023-03-23T07:56:08;99497.26;;;15.96;89.23
40171;BME280;37650;52.790;18.268;2023-03-23T07:59:45;99497.99;;;15.66;87.07
40171;BME280;37650;52.790;18.268;2023-03-23T08:03:07;99499.69;;;15.79;85.47
40171;BME280;37650;52.790;18.268;2023-03-23T08:06:49;99498.89;;;16.54;82.11
40171;BME280;37650;52.790;18.268;2023-03-23T08:10:26;99510.73;;;17.58;80.99
40171;BME280;37650;52.790;18.268;2023-03-23T08:14:10;99509.91;;;17.81;79.11
40171;BME280;37650;52.790;18.268;2023-03-23T08:17:52;99506.05;;;17.02;78.56
40171;BME280;37650;52.790;18.268;2023-03-23T08:21:33;99509.08;;;16.37;79.02
40171;BME280;37650;52.790;18.268;2023-03-23T08:25:15;99506.55;;;15.89;79.96
40171;BME280;37650;52.790;18.268;2023-03-23T08:29:03;99502.29;;;15.43;80.11
40171;BME280;37650;52.790;18.268;2023-03-23T08:32:38;99501.50;;;15.21;80.17
40171;BME280;37650;52.790;18.268;2023-03-23T08:36:12;99502.03;;;15.24;82.21
40171;BME280;37650;52.790;18.268;2023-03-23T08:39:55;99504.95;;;15.28;81.21
40171;BME280;37650;52.790;18.268;2023-03-23T08:43:36;99509.98;;;15.11;81.98
40171;BME280;37650;52.790;18.268;2023-03-23T08:47:16;99519.61;;;15.05;81.92
40171;BME280;37650;52.790;18.268;2023-03-23T08:50:57;99521.67;;;14.93;82.92
40171;BME280;37650;52.790;18.268;2023-03-23T08:54:48;99517.09;;;14.86;83.44
40171;BME280;37650;52.790;18.268;2023-03-23T08:58:26;99512.63;;;14.89;83.54
40171;BME280;37650;52.790;18.268;2023-03-23T09:01:50;99516.58;;;14.98;84.15
40171;BME280;37650;52.790;18.268;2023-03-23T09:05:26;99507.65;;;15.07;83.77
40171;BME280;37650;52.790;18.268;2023-03-23T09:09:10;99503.94;;;15.07;83.62
40171;BME280;37650;52.790;18.268;2023-03-23T09:12:32;99507.02;;;15.06;84.91
40171;BME280;37650;52.790;18.268;2023-03-23T09:15:53;99504.60;;;15.18;85.23
40171;BME280;37650;52.790;18.268;2023-03-23T09:19:14;99499.60;;;15.33;85.18
40171;BME280;37650;52.790;18.268;2023-03-23T09:22:36;99502.86;;;15.45;83.96
40171;BME280;37650;52.790;18.268;2023-03-23T09:26:01;99501.39;;;15.66;82.85
40171;BME280;37650;52.790;18.268;2023-03-23T09:29:22;99494.63;;;15.90;81.48
40171;BME280;37650;52.790;18.268;2023-03-23T09:32:43;99497.59;;;16.10;81.20
40171;BME280;37650;52.790;18.268;2023-03-23T09:36:05;99495.55;;;16.17;81.71
40171;BME280;37650;52.790;18.268;2023-03-23T09:39:29;99495.04;;;16.21;80.81
40171;BME280;37650;52.790;18.268;2023-03-23T09:50:42;99488.42;;;17.44;77.12
40171;BME280;37650;52.790;18.268;2023-03-23T09:54:17;99495.67;;;17.84;77.59
40171;BME280;37650;52.790;18.268;2023-03-23T10:01:53;99487.73;;;18.71;69.95
40171;BME280;37650;52.790;18.268;2023-03-23T10:05:37;99483.86;;;18.81;67.77
40171;BME280;37650;52.790;18.268;2023-03-23T10:09:02;99491.86;;;18.71;66.07
40171;BME280;37650;52.790;18.268;2023-03-23T10:12:55;99490.33;;;18.78;65.40
40171;BME280;37650;52.790;18.268;2023-03-23T10:16:23;99491.66;;;19.49;62.81
40171;BME280;37650;52.790;18.268;2023-03-23T10:20:05;99479.39;;;20.26;61.06
40171;BME280;37650;52.790;18.268;2023-03-23T10:27:26;99488.38;;;20.50;58.80
40171;BME280;37650;52.790;18.268;2023-03-23T10:30:53;99492.41;;;19.78;57.73
40171;BME280;37650;52.790;18.268;2023-03-23T10:37:52;99497.95;;;19.32;59.56
40171;BME280;37650;52.790;18.268;2023-03-23T10:41:17;99500.91;;;18.69;58.67
40171;BME280;37650;52.790;18.268;2023-03-23T10:44:39;99502.92;;;18.36;60.34
40171;BME280;37650;52.790;18.268;2023-03-23T10:48:17;99507.81;;;18.30;60.41
40171;BME280;37650;52.790;18.268;2023-03-23T10:51:44;99510.02;;;18.04;61.62
40171;BME280;37650;52.790;18.268;2023-03-23T10:55:19;99513.38;;;17.82;61.80
40171;BME280;37650;52.790;18.268;2023-03-23T10:58:41;99513.04;;;17.49;61.39
40171;BME280;37650;52.790;18.268;2023-03-23T11:02:14;99517.10;;;17.10;63.49
40171;BME280;37650;52.790;18.268;2023-03-23T11:05:47;99524.39;;;16.90;64.58
40171;BME280;37650;52.790;18.268;2023-03-23T11:09:18;99532.96;;;16.61;65.61
40171;BME280;37650;52.790;18.268;2023-03-23T11:12:44;99542.34;;;16.32;66.92
40171;BME280;37650;52.790;18.268;2023-03-23T11:16:09;99546.67;;;16.07;68.10
40171;BME280;37650;52.790;18.268;2023-03-23T11:19:33;99545.25;;;15.95;68.42
40171;BME280;37650;52.790;18.268;2023-03-23T11:22:56;99549.94;;;15.89;69.75
40171;BME280;37650;52.790;18.268;2023-03-23T11:26:34;99547.94;;;15.92;70.47
40171;BME280;37650;52.790;18.268;2023-03-23T11:30:19;99554.77;;;15.93;70.74
40171;BME280;37650;52.790;18.268;2023-03-23T11:37:18;99568.83;;;15.77;72.18
40171;BME280;37650;52.790;18.268;2023-03-23T11:40:47;99580.09;;;15.63;73.52
40171;BME280;37650;52.790;18.268;2023-03-23T11:44:10;99580.66;;;15.47;74.26
40171;BME280;37650;52.790;18.268;2023-03-23T11:47:38;99581.34;;;15.27;74.94
40171;BME280;37650;52.790;18.268;2023-03-23T11:51:12;99589.09;;;15.04;75.54
40171;BME280;37650;52.790;18.268;2023-03-23T11:54:39;99586.58;;;14.79;76.53
40171;BME280;37650;52.790;18.268;2023-03-23T11:58:11;99583.13;;;14.59;77.48
40171;BME280;37650;52.790;18.268;2023-03-23T12:01:39;99581.73;;;14.40;78.67
40171;BME280;37650;52.790;18.268;2023-03-23T12:20:11;99572.77;;;14.58;83.06
40171;BME280;37650;52.790;18.268;2023-03-23T12:34:26;99572.80;;;14.50;81.26
40171;BME280;37650;52.790;18.268;2023-03-23T12:38:08;99573.48;;;14.53;81.35
40171;BME280;37650;52.790;18.268;2023-03-23T12:42:28;99572.02;;;14.59;81.67
40171;BME280;37650;52.790;18.268;2023-03-23T12:49:15;99556.31;;;14.46;81.28
40171;BME280;37650;52.790;18.268;2023-03-23T12:53:02;99570.16;;;14.39;81.85
40171;BME280;37650;52.790;18.268;2023-03-23T12:59:58;99567.83;;;14.45;82.71
40171;BME280;37650;52.790;18.268;2023-03-23T13:03:44;99573.91;;;14.52;82.60
40171;BME280;37650;52.790;18.268;2023-03-23T13:07:12;99573.29;;;14.64;82.23
40171;BME280;37650;52.790;18.268;2023-03-23T13:10:50;99576.20;;;14.62;82.02
40171;BME280;37650;52.790;18.268;2023-03-23T13:29:21;99573.39;;;14.21;83.45
40171;BME280;37650;52.790;18.268;2023-03-23T13:32:48;99570.32;;;14.22;83.73
40171;BME280;37650;52.790;18.268;2023-03-23T13:36:11;99572.99;;;14.27;84.26
40171;BME280;37650;52.790;18.268;2023-03-23T13:39:49;99569.50;;;14.27;83.96
40171;BME280;37650;52.790;18.268;2023-03-23T13:43:25;99567.41;;;14.16;83.81
40171;BME280;37650;52.790;18.268;2023-03-23T13:47:05;99567.13;;;14.15;84.29
40171;BME280;37650;52.790;18.268;2023-03-23T13:50:29;99567.88;;;14.16;84.41
40171;BME280;37650;52.790;18.268;2023-03-23T13:53:51;99565.93;;;14.19;84.82
40171;BME280;37650;52.790;18.268;2023-03-23T13:57:24;99566.52;;;14.26;84.96
40171;BME280;37650;52.790;18.268;2023-03-23T14:04:30;99563.67;;;14.30;85.28
40171;BME280;37650;52.790;18.268;2023-03-23T14:11:28;99559.59;;;14.47;86.03
40171;BME280;37650;52.790;18.268;2023-03-23T14:14:55;99558.30;;;14.58;85.98
40171;BME280;37650;52.790;18.268;2023-03-23T14:18:25;99560.10;;;14.68;85.64
40171;BME280;37650;52.790;18.268;2023-03-23T14:22:19;99559.42;;;14.73;85.24
40171;BME280;37650;52.790;18.268;2023-03-23T14:25:43;99557.20;;;14.66;84.34
40171;BME280;37650;52.790;18.268;2023-03-23T14:29:05;99556.35;;;14.63;84.56
40171;BME280;37650;52.790;18.268;2023-03-23T14:32:29;99550.03;;;14.60;84.77
40171;BME280;37650;52.790;18.268;2023-03-23T14:35:53;99548.48;;;14.52;84.12
40171;BME280;37650;52.790;18.268;2023-03-23T14:39:30;99548.52;;;14.44;84.20
40171;BME280;37650;52.790;18.268;2023-03-23T14:42:54;99546.09;;;14.34;84.64
40171;BME280;37650;52.790;18.268;2023-03-23T14:46:16;99544.55;;;14.28;85.06
40171;BME280;37650;52.790;18.268;2023-03-23T14:49:40;99544.36;;;14.23;85.58
40171;BME280;37650;52.790;18.268;2023-03-23T14:53:21;99541.77;;;14.20;85.51
40171;BME280;37650;52.790;18.268;2023-03-23T14:56:42;99546.45;;;14.13;85.95
40171;BME280;37650;52.790;18.268;2023-03-23T15:00:05;99537.80;;;14.07;86.25
40171;BME280;37650;52.790;18.268;2023-03-23T15:03:27;99535.19;;;14.04;86.54
40171;BME280;37650;52.790;18.268;2023-03-23T15:06:53;99536.48;;;14.00;87.34
40171;BME280;37650;52.790;18.268;2023-03-23T15:10:20;99536.55;;;13.97;87.54
40171;BME280;37650;52.790;18.268;2023-03-23T15:13:50;99547.85;;;13.94;87.74
40171;BME280;37650;52.790;18.268;2023-03-23T15:17:20;99544.27;;;13.95;88.34
40171;BME280;37650;52.790;18.268;2023-03-23T15:20:48;99541.07;;;13.98;88.30
40171;BME280;37650;52.790;18.268;2023-03-23T15:24:39;99540.57;;;13.97;88.48
40171;BME280;37650;52.790;18.268;2023-03-23T15:31:25;99546.70;;;13.95;88.94
40171;BME280;37650;52.790;18.268;2023-03-23T15:34:46;99543.53;;;13.92;89.19
40171;BME280;37650;52.790;18.268;2023-03-23T15:38:34;99538.63;;;13.89;89.15
40171;BME280;37650;52.790;18.268;2023-03-23T15:41:57;99529.09;;;13.87;89.44
40171;BME280;37650;52.790;18.268;2023-03-23T15:45:27;99522.12;;;13.88;89.41
40171;BME280;37650;52.790;18.268;2023-03-23T15:52:19;99530.92;;;13.83;89.56
40171;BME280;37650;52.790;18.268;2023-03-23T15:55:40;99530.17;;;13.80;89.57
40171;BME280;37650;52.790;18.268;2023-03-23T15:59:02;99537.37;;;13.78;89.79
40171;BME280;37650;52.790;18.268;2023-03-23T16:02:25;99541.63;;;13.75;89.71
40171;BME280;37650;52.790;18.268;2023-03-23T16:05:46;99544.25;;;13.75;90.07
40171;BME280;37650;52.790;18.268;2023-03-23T16:09:13;99560.36;;;13.77;90.49
40171;BME280;37650;52.790;18.268;2023-03-23T16:12:35;99571.59;;;13.78;90.70
40171;BME280;37650;52.790;18.268;2023-03-23T16:15:56;99569.70;;;13.77;90.96
40171;BME280;37650;52.790;18.268;2023-03-23T16:19:19;99579.19;;;13.72;91.33
40171;BME280;37650;52.790;18.268;2023-03-23T16:22:44;99576.83;;;13.65;91.92
40171;BME280;37650;52.790;18.268;2023-03-23T16:26:06;99580.06;;;13.58;92.36
40171;BME280;37650;52.790;18.268;2023-03-23T16:29:27;99583.88;;;13.51;93.16
40171;BME280;37650;52.790;18.268;2023-03-23T16:32:48;99580.67;;;13.45;93.47
40171;BME280;37650;52.790;18.268;2023-03-23T16:36:12;99585.62;;;13.42;93.88
40171;BME280;37650;52.790;18.268;2023-03-23T16:39:33;99584.90;;;13.37;94.72
40171;BME280;37650;52.790;18.268;2023-03-23T16:42:54;99580.35;;;13.34;94.39
40171;BME280;37650;52.790;18.268;2023-03-23T16:46:16;99582.28;;;13.31;94.55
40171;BME280;37650;52.790;18.268;2023-03-23T16:49:38;99584.90;;;13.28;94.20
40171;BME280;37650;52.790;18.268;2023-03-23T16:53:00;99586.61;;;13.26;93.85
40171;BME280;37650;52.790;18.268;2023-03-23T16:56:21;99584.65;;;13.27;93.56
40171;BME280;37650;52.790;18.268;2023-03-23T16:59:43;99583.54;;;13.25;93.34
40171;BME280;37650;52.790;18.268;2023-03-23T17:03:04;99585.84;;;13.22;93.21
40171;BME280;37650;52.790;18.268;2023-03-23T17:06:26;99587.19;;;13.20;93.11
40171;BME280;37650;52.790;18.268;2023-03-23T17:09:47;99585.84;;;13.16;93.02
40171;BME280;37650;52.790;18.268;2023-03-23T17:13:09;99583.09;;;13.11;92.80
40171;BME280;37650;52.790;18.268;2023-03-23T17:16:31;99582.97;;;13.10;92.94
40171;BME280;37650;52.790;18.268;2023-03-23T17:19:53;99584.51;;;13.12;92.98
40171;BME280;37650;52.790;18.268;2023-03-23T17:23:15;99589.51;;;13.09;92.90
40171;BME280;37650;52.790;18.268;2023-03-23T17:26:37;99596.84;;;13.08;92.98
40171;BME280;37650;52.790;18.268;2023-03-23T17:29:58;99596.57;;;13.06;92.87
40171;BME280;37650;52.790;18.268;2023-03-23T17:33:20;99594.67;;;13.03;92.88
40171;BME280;37650;52.790;18.268;2023-03-23T17:36:41;99590.33;;;13.02;93.09
40171;BME280;37650;52.790;18.268;2023-03-23T17:40:04;99592.23;;;12.99;93.09
40171;BME280;37650;52.790;18.268;2023-03-23T17:43:30;99591.81;;;12.98;93.09
40171;BME280;37650;52.790;18.268;2023-03-23T17:46:52;99594.46;;;12.95;93.12
40171;BME280;37650;52.790;18.268;2023-03-23T17:50:18;99598.59;;;12.91;93.36
40171;BME280;37650;52.790;18.268;2023-03-23T17:53:39;99609.81;;;12.88;93.47
40171;BME280;37650;52.790;18.268;2023-03-23T17:57:03;99616.60;;;12.87;93.19
40171;BME280;37650;52.790;18.268;2023-03-23T18:00:25;99613.39;;;12.84;93.28
40171;BME280;37650;52.790;18.268;2023-03-23T18:03:49;99617.20;;;12.82;93.28
40171;BME280;37650;52.790;18.268;2023-03-23T18:07:10;99617.45;;;12.81;93.20
40171;BME280;37650;52.790;18.268;2023-03-23T18:10:36;99610.73;;;12.79;93.22
40171;BME280;37650;52.790;18.268;2023-03-23T18:14:00;99594.32;;;12.73;92.96
40171;BME280;37650;52.790;18.268;2023-03-23T18:17:22;99600.75;;;12.66;93.00
40171;BME280;37650;52.790;18.268;2023-03-23T18:20:46;99617.16;;;12.56;93.47
40171;BME280;37650;52.790;18.268;2023-03-23T18:24:09;99624.07;;;12.46;93.90
40171;BME280;37650;52.790;18.268;2023-03-23T18:27:32;99627.47;;;12.36;94.26
40171;BME280;37650;52.790;18.268;2023-03-23T18:31:05;99632.39;;;12.29;95.03
40171;BME280;37650;52.790;18.268;2023-03-23T18:34:30;99627.45;;;12.27;96.30
40171;BME280;37650;52.790;18.268;2023-03-23T18:37:52;99629.42;;;12.25;96.47
40171;BME280;37650;52.790;18.268;2023-03-23T18:41:16;99641.89;;;12.22;96.39
40171;BME280;37650;52.790;18.268;2023-03-23T18:44:41;99641.27;;;12.18;96.84
40171;BME280;37650;52.790;18.268;2023-03-23T18:48:05;99647.27;;;12.14;96.98
40171;BME280;37650;52.790;18.268;2023-03-23T18:51:29;99636.52;;;12.08;96.95
40171;BME280;37650;52.790;18.268;2023-03-23T18:54:52;99634.59;;;12.02;97.63
40171;BME280;37650;52.790;18.268;2023-03-23T18:58:17;99633.06;;;11.92;98.30
40171;BME280;37650;52.790;18.268;2023-03-23T19:01:41;99637.95;;;11.82;98.43
40171;BME280;37650;52.790;18.268;2023-03-23T19:05:06;99639.90;;;11.75;98.99
40171;BME280;37650;52.790;18.268;2023-03-23T19:08:32;99647.34;;;11.71;99.70
40171;BME280;37650;52.790;18.268;2023-03-23T19:11:57;99648.54;;;11.65;99.45
40171;BME280;37650;52.790;18.268;2023-03-23T19:15:21;99660.28;;;11.59;99.90
40171;BME280;37650;52.790;18.268;2023-03-23T19:18:44;99667.48;;;11.52;99.97
40171;BME280;37650;52.790;18.268;2023-03-23T19:22:07;99656.42;;;11.49;100.00
40171;BME280;37650;52.790;18.268;2023-03-23T19:25:30;99652.13;;;11.44;100.00
40171;BME280;37650;52.790;18.268;2023-03-23T19:28:54;99657.34;;;11.37;100.00
40171;BME280;37650;52.790;18.268;2023-03-23T19:32:17;99647.67;;;11.31;100.00
40171;BME280;37650;52.790;18.268;2023-03-23T19:35:40;99635.75;;;11.27;100.00
40171;BME280;37650;52.790;18.268;2023-03-23T19:39:05;99628.09;;;11.23;100.00
40171;BME280;37650;52.790;18.268;2023-03-23T19:42:29;99623.02;;;11.19;100.00
40171;BME280;37650;52.790;18.268;2023-03-23T19:45:53;99623.46;;;11.14;100.00
40171;BME280;37650;52.790;18.268;2023-03-23T19:49:19;99635.86;;;11.12;100.00